createdAt,value
2022-10-29T00:02:07.818Z,14.600000000000001
2022-10-29T00:17:23.777Z,14.470000000000002
2022-10-29T00:32:39.761Z,14.339999999999998
2022-10-29T00:47:57.013Z,14.09
2022-10-29T01:03:14.762Z,13.87
2022-10-29T01:18:31.761Z,13.720000000000002
2022-10-29T01:33:47.654Z,13.57
2022-10-29T01:49:03.649Z,13.429999999999998
2022-10-29T02:04:20.608Z,13.350000000000001
2022-10-29T02:19:36.586Z,13.230000000000002
2022-10-29T02:34:53.545Z,13
2022-10-29T02:50:10.579Z,12.829999999999998
2022-10-29T03:05:27.512Z,12.71
2022-10-29T03:20:43.513Z,12.59
2022-10-29T03:35:59.558Z,12.59
2022-10-29T03:51:15.455Z,12.43
2022-10-29T04:06:32.439Z,12.28
2022-10-29T04:37:05.379Z,12.1
2022-10-29T04:52:22.350Z,12.029999999999998
2022-10-29T05:07:39.325Z,12.08
2022-10-29T05:22:55.267Z,11.84
2022-10-29T05:38:11.316Z,11.830000000000002
2022-10-29T05:53:27.215Z,11.629999999999997
2022-10-29T06:08:44.254Z,11.59
2022-10-29T06:24:01.180Z,11.59
2022-10-29T06:39:18.194Z,11.66
2022-10-29T06:54:35.113Z,11.730000000000002
2022-10-29T07:09:51.128Z,12.089999999999998
2022-10-29T07:25:07.076Z,13.330000000000002
2022-10-29T07:40:23.094Z,13.74
2022-10-29T07:55:40.017Z,14.36
2022-10-29T08:10:56.030Z,14.66
2022-10-29T08:26:12.953Z,15.03
2022-10-29T08:41:29.959Z,15.880000000000003
2022-10-29T08:56:46.896Z,16.42
2022-10-29T09:12:02.884Z,16.58
2022-10-29T09:27:18.854Z,16.79132849288732
2022-10-29T09:42:34.851Z,16.659009414867693
2022-10-29T09:57:51.788Z,16.477015148097447
2022-10-29T10:13:14.175Z,15.911544748118759
2022-10-29T10:28:25.759Z,15.418750466651145
2022-10-29T10:43:41.683Z,14.946189067799345
2022-10-29T10:58:58.695Z,15.075184782952556
2022-10-29T11:14:14.618Z,14.614365060790018
2022-10-29T11:29:30.632Z,14.527181171199446
2022-10-29T11:44:46.593Z,14.36635988653367
2022-10-29T12:00:03.517Z,14.6174468738753
2022-10-29T12:15:20.502Z,14.072580863009607
2022-10-29T12:30:37.469Z,13.035225519338683
2022-10-29T12:46:14.693Z,13.22172282422824
2022-10-29T13:01:10.454Z,13.72273278320891
2022-10-29T13:16:26.365Z,14.16948173975706
2022-10-29T13:31:42.335Z,14.36211419960122
2022-10-29T13:46:58.296Z,14.482602486018864
2022-10-29T14:02:15.444Z,14.108448301902559
2022-10-29T14:17:32.237Z,14.399187993453005
2022-10-29T14:32:49.205Z,14.244380225088408
2022-10-29T14:48:05.209Z,14.415072034608867
2022-10-29T15:03:22.180Z,14.602826994442731
2022-10-29T15:18:38.135Z,14.85285669352177
2022-10-29T15:33:54.063Z,14.89746485983927
2022-10-29T15:49:10.079Z,14.926596791271512
2022-10-29T16:04:28.015Z,15.352241628793834
2022-10-29T16:19:45.032Z,15.764124545429507
2022-10-29T16:35:00.970Z,16.46813616999964
2022-10-29T16:50:16.961Z,17.142927309631705
2022-10-29T17:05:33.891Z,17.364677856804967
2022-10-29T17:20:49.908Z,17.869988724169918
2022-10-29T17:36:05.840Z,17.65
2022-10-29T17:51:22.845Z,17.400000000000002
2022-10-29T18:06:40.791Z,17.119999999999997
2022-10-29T18:21:57.794Z,16.769999999999996
2022-10-29T18:37:13.746Z,16.51
2022-10-29T18:52:29.741Z,16.29
2022-10-29T19:07:47.772Z,16.070000000000004
2022-10-29T19:23:03.641Z,15.880000000000003
2022-10-29T19:38:19.649Z,15.609999999999998
2022-10-29T19:53:35.576Z,15.399999999999999
2022-10-29T20:08:54.586Z,15.320000000000002
2022-10-29T20:24:10.514Z,15.200000000000001
2022-10-29T20:39:30.862Z,14.950000000000001
2022-10-29T20:54:42.485Z,14.759999999999998
2022-10-29T21:09:59.487Z,14.57
2022-10-29T21:25:15.399Z,14.35
2022-10-29T21:40:32.429Z,14.240000000000002
2022-10-29T21:55:49.369Z,14.170000000000003
2022-10-29T22:11:06.381Z,13.89
2022-10-29T22:26:22.312Z,13.760000000000002
2022-10-29T22:41:38.310Z,13.709999999999999
2022-10-29T22:56:54.251Z,13.450000000000001
2022-10-29T23:12:11.267Z,13.359999999999998
2022-10-29T23:27:28.203Z,13.159999999999998
2022-10-29T23:42:45.215Z,13.019999999999996
2022-10-29T23:58:02.182Z,12.88
